Time;durP1;ratioP1;P1;durP2;ratioP2;P2;SDS_P1;SDS_P2;PMS_P1;PMS_P2;Temp;Humidity;BMP_temperature;BMP_pressure;BME280_temperature;BME280_humidity;BME280_pressure;Samples;Min_cycle;Max_cycle;Signal;HPM_P1;HPM_P2
2023/05/16 00:00:40;;;;;;;;;;;;;;;;;;5011678;28;20396;-67
2023/05/16 00:03:10;;;;;;;;;;;;;;;;;;5011065;28;20011;-67
2023/05/16 00:05:37;;;;;;;;;;;;;;;;;;5009798;28;19933;-68
2023/05/16 00:08:05;;;;;;;;;;;;;;;;;;5011354;28;19929;-67
2023/05/16 00:10:32;;;;;;;;;;;;;;;;;;5006586;28;20447;-67
2023/05/16 00:13:00;;;;;;;;;;;;;;;;;;5005358;28;19953;-68
2023/05/16 00:15:28;;;;;;;;;;;;;;;;;;5009732;28;20300;-68
2023/05/16 00:17:57;;;;;;;;;;;;;;;;;;5008413;28;19926;-68
2023/05/16 00:20:24;;;;;;;;;;;;;;;;;;5006364;28;20377;-67
2023/05/16 00:22:51;;;;;;;;;;;;;;;;;;5005892;28;19929;-68
2023/05/16 00:25:18;;;;;;;;;;;;;;;;;;5011640;28;19925;-68
2023/05/16 00:27:45;;;;;;;;;;;;;;;;;;5000870;28;19969;-68
2023/05/16 00:30:12;;;;;;;;;;;;;;;;;;5006233;28;19983;-68
2023/05/16 00:32:39;;;;;;;;;;;;;;;;;;5003001;28;19985;-68
2023/05/16 00:35:06;;;;;;;;;;;;;;;;;;5011668;28;19925;-68
2023/05/16 00:37:33;;;;;;;;;;;;;;;;;;5010595;28;20348;-68
2023/05/16 00:40:00;;;;;;;;;;;;;;;;;;5011976;28;19972;-67
2023/05/16 00:42:27;;;;;;;;;;;;;;;;;;5008232;28;20084;-68
2023/05/16 00:44:54;;;;;;;;;;;;;;;;;;5007188;28;19933;-68
2023/05/16 00:47:21;;;;;;;;;;;;;;;;;;5005686;28;20052;-69
2023/05/16 00:49:48;;;;;;;;;;;;;;;;;;5004622;28;20381;-68
2023/05/16 00:52:15;;;;;;;;;;;;;;;;;;5012150;28;19934;-68
2023/05/16 00:54:42;;;;;;;;;;;;;;;;;;5013374;28;20627;-67
2023/05/16 00:57:09;;;;;;;;;;;;;;;;;;5007191;28;19988;-67
2023/05/16 00:59:36;;;;;;;;;;;;;;;;;;5005631;28;19929;-68
2023/05/16 01:02:03;;;;;;;;;;;;;;;;;;5004469;28;20338;-67
2023/05/16 01:04:30;;;;;;;;;;;;;;;;;;5008659;28;19956;-67
2023/05/16 01:06:57;;;;;;;;;;;;;;;;;;5001981;28;20376;-68
2023/05/16 01:09:24;;;;;;;;;;;;;;;;;;5003374;28;20036;-68
2023/05/16 01:11:51;;;;;;;;;;;;;;;;;;5003871;28;19925;-69
2023/05/16 01:14:18;;;;;;;;;;;;;;;;;;4999705;28;20328;-67
2023/05/16 01:16:45;;;;;;;;;;;;;;;;;;5004190;28;20388;-67
2023/05/16 01:19:12;;;;;;;;;;;;;;;;;;5007656;28;20132;-67
2023/05/16 01:21:39;;;;;;;;;;;;;;;;;;5009205;28;19926;-68
2023/05/16 01:24:06;;;;;;;;;;;;;;;;;;5005807;28;20027;-68
2023/05/16 01:26:33;;;;;;;;;;;;;;;;;;5006041;28;19930;-68
2023/05/16 01:29:00;;;;;;;;;;;;;;;;;;5007700;28;20351;-68
2023/05/16 01:31:28;;;;;;;;;;;;;;;;;;5003348;28;19925;-68
2023/05/16 01:33:55;;;;;;;;;;;;;;;;;;5002127;28;19925;-68
2023/05/16 01:36:22;;;;;;;;;;;;;;;;;;5008795;28;19929;-68
2023/05/16 01:38:49;;;;;;;;;;;;;;;;;;5005686;28;19925;-68
2023/05/16 01:41:16;;;;;;;;;;;;;;;;;;5010015;28;19948;-68
2023/05/16 01:43:44;;;;;;;;;;;;;;;;;;5010651;28;19996;-68
2023/05/16 01:46:11;;;;;;;;;;;;;;;;;;5010145;28;19948;-68
2023/05/16 01:48:38;;;;;;;;;;;;;;;;;;5007619;28;19926;-68
2023/05/16 01:51:05;;;;;;;;;;;;;;;;;;5008323;28;19934;-68
2023/05/16 01:53:32;;;;;;;;;;;;;;;;;;5008356;28;19926;-68
2023/05/16 01:55:59;;;;;;;;;;;;;;;;;;5008463;28;20454;-67
2023/05/16 01:58:26;;;;;;;;;;;;;;;;;;5003426;28;19979;-68
2023/05/16 02:00:53;;;;;;;;;;;;;;;;;;5004235;28;19926;-68
2023/05/16 02:03:20;;;;;;;;;;;;;;;;;;5009340;28;20404;-68
2023/05/16 02:05:47;;;;;;;;;;;;;;;;;;5004192;28;20048;-68
2023/05/16 02:08:14;;;;;;;;;;;;;;;;;;5006791;28;19933;-68
2023/05/16 02:10:41;;;;;;;;;;;;;;;;;;5008986;28;19926;-68
2023/05/16 02:13:08;;;;;;;;;;;;;;;;;;5011555;28;19932;-67
2023/05/16 02:15:35;;;;;;;;;;;;;;;;;;5005688;28;19932;-67
2023/05/16 02:18:02;;;;;;;;;;;;;;;;;;5008884;28;20343;-68
2023/05/16 02:20:29;;;;;;;;;;;;;;;;;;5010504;28;19971;-67
2023/05/16 02:22:56;;;;;;;;;;;;;;;;;;5009706;28;20495;-67
2023/05/16 02:25:23;;;;;;;;;;;;;;;;;;5003093;28;19979;-67
2023/05/16 02:27:50;;;;;;;;;;;;;;;;;;5006632;28;20424;-67
2023/05/16 02:30:17;;;;;;;;;;;;;;;;;;5011461;28;19980;-67
2023/05/16 02:32:44;;;;;;;;;;;;;;;;;;5006966;28;19925;-67
2023/05/16 02:35:11;;;;;;;;;;;;;;;;;;4998812;28;19977;-66
2023/05/16 02:37:38;;;;;;;;;;;;;;;;;;5007377;28;19965;-66
2023/05/16 02:40:06;;;;;;;;;;;;;;;;;;5007949;28;20365;-66
2023/05/16 02:42:33;;;;;;;;;;;;;;;;;;5010424;28;19969;-66
2023/05/16 02:45:00;;;;;;;;;;;;;;;;;;5005957;28;19926;-66
2023/05/16 02:47:27;;;;;;;;;;;;;;;;;;5007725;28;19988;-66
2023/05/16 02:49:54;;;;;;;;;;;;;;;;;;5008202;28;20337;-66
2023/05/16 02:52:21;;;;;;;;;;;;;;;;;;5004093;28;19933;-66
2023/05/16 02:54:48;;;;;;;;;;;;;;;;;;5005710;28;19926;-66
2023/05/16 02:57:15;;;;;;;;;;;;;;;;;;5006034;28;19929;-65
2023/05/16 02:59:42;;;;;;;;;;;;;;;;;;5010223;28;19925;-65
2023/05/16 03:02:10;;;;;;;;;;;;;;;;;;5009084;28;20289;-65
2023/05/16 03:04:37;;;;;;;;;;;;;;;;;;5014777;28;19996;-65
2023/05/16 03:07:04;;;;;;;;;;;;;;;;;;5006827;28;20019;-64
2023/05/16 03:09:31;;;;;;;;;;;;;;;;;;5014184;28;19932;-66
2023/05/16 03:11:58;;;;;;;;;;;;;;;;;;5008983;28;19925;-66
2023/05/16 03:14:25;;;;;;;;;;;;;;;;;;5010479;28;19941;-65
2023/05/16 03:16:52;;;;;;;;;;;;;;;;;;5008659;28;19957;-68
2023/05/16 03:19:19;;;;;;;;;;;;;;;;;;5005349;28;19969;-66
2023/05/16 03:21:46;;;;;;;;;;;;;;;;;;5003094;28;19937;-66
2023/05/16 03:24:13;;;;;;;;;;;;;;;;;;5007229;28;19973;-66
2023/05/16 03:26:40;;;;;;;;;;;;;;;;;;5005146;28;20372;-66
2023/05/16 03:29:07;;;;;;;;;;;;;;;;;;5009992;28;19929;-66
2023/05/16 03:31:34;;;;;;;;;;;;;;;;;;5004586;28;19933;-66
2023/05/16 03:34:01;;;;;;;;;;;;;;;;;;5010170;28;19926;-67
2023/05/16 03:36:29;;;;;;;;;;;;;;;;;;5011327;28;20495;-66
2023/05/16 03:38:56;;;;;;;;;;;;;;;;;;5008175;28;19930;-67
2023/05/16 03:41:23;;;;;;;;;;;;;;;;;;5010380;28;19961;-67
2023/05/16 03:43:50;;;;;;;;;;;;;;;;;;5007832;28;19971;-66
2023/05/16 03:46:17;;;;;;;;;;;;;;;;;;5011524;28;19969;-67
2023/05/16 03:48:44;;;;;;;;;;;;;;;;;;5008037;28;19984;-67
2023/05/16 03:51:11;;;;;;;;;;;;;;;;;;5010691;28;20023;-67
2023/05/16 03:53:38;;;;;;;;;;;;;;;;;;5003240;28;19926;-66
2023/05/16 03:56:05;;;;;;;;;;;;;;;;;;5005320;28;19934;-66
2023/05/16 03:58:32;;;;;;;;;;;;;;;;;;5012779;28;19933;-66
2023/05/16 04:00:59;;;;;;;;;;;;;;;;;;5001591;28;20393;-67
2023/05/16 04:03:27;;;;;;;;;;;;;;;;;;5010322;28;19925;-66
2023/05/16 04:05:54;;;;;;;;;;;;;;;;;;5011734;28;19930;-67
2023/05/16 04:08:21;;;;;;;;;;;;;;;;;;5005745;28;19925;-66
2023/05/16 04:10:48;;;;;;;;;;;;;;;;;;5007497;28;19935;-66
2023/05/16 04:13:15;;;;;;;;;;;;;;;;;;5009745;28;20485;-66
2023/05/16 04:15:42;;;;;;;;;;;;;;;;;;5008910;28;20316;-66
2023/05/16 04:18:09;;;;;;;;;;;;;;;;;;5011595;28;19979;-66
2023/05/16 04:20:36;;;;;;;;;;;;;;;;;;5011809;28;20463;-66
2023/05/16 04:23:03;;;;;;;;;;;;;;;;;;5012029;28;19930;-66
2023/05/16 04:25:31;;;;;;;;;;;;;;;;;;5010679;28;19969;-67
2023/05/16 04:27:58;;;;;;;;;;;;;;;;;;5006425;28;20025;-66
2023/05/16 04:30:25;;;;;;;;;;;;;;;;;;5004589;28;19980;-67
2023/05/16 04:32:52;;;;;;;;;;;;;;;;;;5007533;28;20397;-67
2023/05/16 04:35:20;;;;;;;;;;;;;;;;;;5007007;28;19929;-66
2023/05/16 04:37:47;;;;;;;;;;;;;;;;;;5009957;28;19979;-66
2023/05/16 04:40:14;;;;;;;;;;;;;;;;;;5012901;28;19925;-66
2023/05/16 04:42:41;;;;;;;;;;;;;;;;;;5007460;28;20300;-67
2023/05/16 04:45:10;;;;;;;;;;;;;;;;;;5011427;28;19956;-66
2023/05/16 04:47:37;;;;;;;;;;;;;;;;;;5009551;28;20020;-67
2023/05/16 04:50:05;;;;;;;;;;;;;;;;;;5010812;28;19929;-67
2023/05/16 04:52:32;;;;;;;;;;;;;;;;;;5005047;28;19933;-67
2023/05/16 04:54:59;;;;;;;;;;;;;;;;;;5011876;28;20356;-67
2023/05/16 04:57:26;;;;;;;;;;;;;;;;;;5003757;28;19932;-67
2023/05/16 04:59:53;;;;;;;;;;;;;;;;;;5001917;28;19936;-67
2023/05/16 05:02:20;;;;;;;;;;;;;;;;;;5007300;28;19941;-67
2023/05/16 05:04:47;;;;;;;;;;;;;;;;;;5004066;28;20356;-67
2023/05/16 05:07:14;;;;;;;;;;;;;;;;;;5003829;28;19965;-67
2023/05/16 05:09:42;;;;;;;;;;;;;;;;;;5003199;28;19925;-67
2023/05/16 05:12:10;;;;;;;;;;;;;;;;;;5007546;28;20351;-67
2023/05/16 05:14:37;;;;;;;;;;;;;;;;;;5008320;28;19925;-67
2023/05/16 05:17:04;;;;;;;;;;;;;;;;;;5012070;28;20352;-67
2023/05/16 05:19:31;;;;;;;;;;;;;;;;;;5011054;28;20321;-67
2023/05/16 05:21:58;;;;;;;;;;;;;;;;;;5011910;28;19925;-67
2023/05/16 05:24:25;;;;;;;;;;;;;;;;;;5007656;28;19932;-66
2023/05/16 05:26:53;;;;;;;;;;;;;;;;;;4991832;28;19969;-67
2023/05/16 05:29:20;;;;;;;;;;;;;;;;;;5004877;28;19925;-67
2023/05/16 05:31:47;;;;;;;;;;;;;;;;;;5008474;28;19926;-66
2023/05/16 05:34:14;;;;;;;;;;;;;;;;;;5010212;28;19925;-66
2023/05/16 05:36:41;;;;;;;;;;;;;;;;;;5004516;28;20246;-66
2023/05/16 05:39:08;;;;;;;;;;;;;;;;;;5007408;28;19969;-66
2023/05/16 05:41:35;;;;;;;;;;;;;;;;;;5003287;28;19977;-67
2023/05/16 05:44:02;;;;;;;;;;;;;;;;;;5008874;28;20008;-64
2023/05/16 05:46:29;;;;;;;;;;;;;;;;;;5008962;28;20540;-65
2023/05/16 05:48:56;;;;;;;;;;;;;;;;;;5010008;28;19925;-65
2023/05/16 05:51:23;;;;;;;;;;;;;;;;;;5011036;28;19925;-65
2023/05/16 05:53:50;;;;;;;;;;;;;;;;;;5006720;28;19929;-66
2023/05/16 05:56:17;;;;;;;;;;;;;;;;;;5004469;28;19926;-66
2023/05/16 05:58:44;;;;;;;;;;;;;;;;;;5008151;28;19934;-66
2023/05/16 06:01:11;;;;;;;;;;;;;;;;;;5010056;28;20348;-67
2023/05/16 06:03:38;;;;;;;;;;;;;;;;;;5009533;28;19925;-66
2023/05/16 06:06:05;;;;;;;;;;;;;;;;;;5004895;28;19999;-66
2023/05/16 06:08:32;;;;;;;;;;;;;;;;;;5009003;28;19975;-66
2023/05/16 06:11:00;;;;;;;;;;;;;;;;;;5008735;28;19925;-66
2023/05/16 06:13:27;;;;;;;;;;;;;;;;;;5010253;28;20008;-66
2023/05/16 06:15:54;;;;;;;;;;;;;;;;;;5001781;28;19925;-67
2023/05/16 06:18:21;;;;;;;;;;;;;;;;;;5000487;28;19925;-66
2023/05/16 06:20:49;;;;;;;;;;;;;;;;;;4999729;28;19925;-66
2023/05/16 06:23:16;;;;;;;;;;;;;;;;;;5000633;28;20005;-65
2023/05/16 06:25:43;;;;;;;;;;;;;;;;;;5008796;28;19925;-65
2023/05/16 06:28:10;;;;;;;;;;;;;;;;;;4999606;28;19996;-66
2023/05/16 06:30:37;;;;;;;;;;;;;;;;;;5006801;28;20305;-66
2023/05/16 06:33:04;;;;;;;;;;;;;;;;;;5008732;28;20403;-66
2023/05/16 06:35:31;;;;;;;;;;;;;;;;;;5001822;28;19926;-67
2023/05/16 06:37:58;;;;;;;;;;;;;;;;;;4999628;28;19971;-66
2023/05/16 06:40:25;;;;;;;;;;;;;;;;;;5013998;28;19929;-66
2023/05/16 06:42:52;;;;;;;;;;;;;;;;;;5005325;28;19933;-66
2023/05/16 06:45:22;;;;;;;;;;;;;;;;;;5000186;28;20377;-66
2023/05/16 06:47:49;;;;;;;;;;;;;;;;;;5004437;28;19980;-66
2023/05/16 06:50:16;;;;;;;;;;;;;;;;;;5005741;28;19972;-66
2023/05/16 06:52:43;;;;;;;;;;;;;;;;;;5013547;28;19962;-66
2023/05/16 06:55:10;;;;;;;;;;;;;;;;;;5009448;28;19965;-67
2023/05/16 06:57:37;;;;;;;;;;;;;;;;;;5010763;28;19973;-66
2023/05/16 07:00:04;;;;;;;;;;;;;;;;;;5013345;28;20304;-65
2023/05/16 07:02:31;;;;;;;;;;;;;;;;;;5008373;28;19925;-65
2023/05/16 07:04:58;;;;;;;;;;;;;;;;;;5008946;28;19968;-66
2023/05/16 07:07:25;;;;;;;;;;;;;;;;;;5013342;28;19930;-66
2023/05/16 07:09:52;;;;;;;;;;;;;;;;;;5013777;28;19933;-66
2023/05/16 07:12:19;;;;;;;;;;;;;;;;;;5014024;28;19925;-66
2023/05/16 07:14:46;;;;;;;;;;;;;;;;;;5009765;28;20429;-66
2023/05/16 07:17:14;;;;;;;;;;;;;;;;;;5006153;28;19925;-66
2023/05/16 07:19:41;;;;;;;;;;;;;;;;;;5004828;28;20423;-66
2023/05/16 07:22:08;;;;;;;;;;;;;;;;;;5009452;28;19976;-66
2023/05/16 07:24:35;;;;;;;;;;;;;;;;;;5013042;28;19968;-66
2023/05/16 07:27:02;;;;;;;;;;;;;;;;;;5006532;28;20021;-66
2023/05/16 07:29:30;;;;;;;;;;;;;;;;;;5004530;28;19961;-67
2023/05/16 07:31:57;;;;;;;;;;;;;;;;;;5008388;28;19980;-67
2023/05/16 07:34:24;;;;;;;;;;;;;;;;;;5004059;28;19925;-67
2023/05/16 07:36:51;;;;;;;;;;;;;;;;;;5009474;28;20297;-67
2023/05/16 07:39:18;;;;;;;;;;;;;;;;;;5004107;28;19934;-68
2023/05/16 07:41:45;;;;;;;;;;;;;;;;;;5009262;28;19933;-67
2023/05/16 07:44:12;;;;;;;;;;;;;;;;;;5010130;28;20496;-68
2023/05/16 07:46:39;;;;;;;;;;;;;;;;;;5006966;28;19929;-68
2023/05/16 07:49:06;;;;;;;;;;;;;;;;;;5003565;28;20029;-66
2023/05/16 07:51:33;;;;;;;;;;;;;;;;;;5009341;28;19948;-67
2023/05/16 07:54:00;;;;;;;;;;;;;;;;;;5009992;28;19976;-67
2023/05/16 07:56:27;;;;;;;;;;;;;;;;;;5011065;28;20381;-67
2023/05/16 07:58:54;;;;;;;;;;;;;;;;;;5010925;28;19995;-68
2023/05/16 08:01:22;;;;;;;;;;;;;;;;;;5011365;28;20392;-68
2023/05/16 08:03:49;;;;;;;;;;;;;;;;;;5007087;28;19933;-68
2023/05/16 08:06:16;;;;;;;;;;;;;;;;;;5009741;28;19929;-67
2023/05/16 08:08:43;;;;;;;;;;;;;;;;;;5011671;28;19925;-67
2023/05/16 08:11:10;;;;;;;;;;;;;;;;;;5011179;28;19925;-67
2023/05/16 08:13:37;;;;;;;;;;;;;;;;;;5009440;28;19941;-67
2023/05/16 08:16:04;;;;;;;;;;;;;;;;;;5026048;28;20371;-68
2023/05/16 08:18:31;;;;;;;;;;;;;;;;;;5002039;28;19940;-67
2023/05/16 08:20:58;;;;;;;;;;;;;;;;;;5012311;28;19991;-67
2023/05/16 08:23:25;;;;;;;;;;;;;;;;;;5007341;28;19968;-64
2023/05/16 08:25:53;;;;;;;;;;;;;;;;;;5008361;28;19933;-67
2023/05/16 08:28:20;;;;;;;;;;;;;;;;;;5004897;28;20004;-67
2023/05/16 08:30:47;;;;;;;;;;;;;;;;;;5012226;28;19932;-67
2023/05/16 08:33:14;;;;;;;;;;;;;;;;;;5009768;28;19933;-67
2023/05/16 08:35:41;;;;;;;;;;;;;;;;;;5005681;28;20335;-67
2023/05/16 08:38:08;;;;;;;;;;;;;;;;;;4999443;28;19926;-66
2023/05/16 08:40:35;;;;;;;;;;;;;;;;;;5011588;28;19983;-67
2023/05/16 08:43:02;;;;;;;;;;;;;;;;;;5008768;28;19988;-67
2023/05/16 08:45:29;;;;;;;;;;;;;;;;;;5007175;28;20003;-66
2023/05/16 08:47:56;;;;;;;;;;;;;;;;;;5004210;28;19929;-67
2023/05/16 08:50:23;;;;;;;;;;;;;;;;;;5009781;28;20508;-67
2023/05/16 08:52:50;;;;;;;;;;;;;;;;;;5004692;28;19965;-67
2023/05/16 08:55:17;;;;;;;;;;;;;;;;;;5001416;28;19953;-67
2023/05/16 08:57:45;;;;;;;;;;;;;;;;;;5007035;28;19987;-67
2023/05/16 09:00:12;;;;;;;;;;;;;;;;;;5007169;28;20315;-66
2023/05/16 09:02:39;;;;;;;;;;;;;;;;;;5006013;28;19925;-66
2023/05/16 09:05:06;;;;;;;;;;;;;;;;;;5010393;28;19925;-67
2023/05/16 09:07:33;;;;;;;;;;;;;;;;;;5010411;28;19933;-67
2023/05/16 09:10:00;;;;;;;;;;;;;;;;;;5010314;28;20001;-67
2023/05/16 09:12:27;;;;;;;;;;;;;;;;;;5010660;28;20732;-66
2023/05/16 09:14:54;;;;;;;;;;;;;;;;;;5012230;28;19930;-67
2023/05/16 09:17:21;;;;;;;;;;;;;;;;;;5007821;28;19932;-67
2023/05/16 09:19:51;;;;;;;;;;;;;;;;;;5009653;28;19926;-67
2023/05/16 09:22:18;;;;;;;;;;;;;;;;;;5005883;28;19948;-68
2023/05/16 09:24:45;;;;;;;;;;;;;;;;;;5010333;28;19925;-67
2023/05/16 09:27:12;;;;;;;;;;;;;;;;;;5004201;28;20424;-67
2023/05/16 09:29:39;;;;;;;;;;;;;;;;;;5010060;28;20292;-67
2023/05/16 09:32:06;;;;;;;;;;;;;;;;;;5009785;28;19952;-67
2023/05/16 09:34:33;;;;;;;;;;;;;;;;;;5010670;28;20341;-67
2023/05/16 09:37:00;;;;;;;;;;;;;;;;;;5010235;28;19941;-67
2023/05/16 09:39:28;;;;;;;;;;;;;;;;;;5009855;28;20034;-67
2023/05/16 09:41:55;;;;;;;;;;;;;;;;;;4999057;28;19925;-67
2023/05/16 09:44:22;;;;;;;;;;;;;;;;;;5011669;28;20277;-67
2023/05/16 09:46:49;;;;;;;;;;;;;;;;;;5009086;28;20007;-67
2023/05/16 09:49:16;;;;;;;;;;;;;;;;;;5007145;28;19929;-67
2023/05/16 09:51:43;;;;;;;;;;;;;;;;;;5000874;28;19934;-68
2023/05/16 09:54:10;;;;;;;;;;;;;;;;;;5003031;28;19925;-67
2023/05/16 09:56:37;;;;;;;;;;;;;;;;;;5010255;28;19926;-67
2023/05/16 09:59:04;;;;;;;;;;;;;;;;;;5011153;28;19925;-66
2023/05/16 10:01:31;;;;;;;;;;;;;;;;;;5003617;28;20377;-66
2023/05/16 10:03:58;;;;;;;;;;;;;;;;;;5003443;28;19933;-66
2023/05/16 10:06:25;;;;;;;;;;;;;;;;;;5005937;28;19996;-67
2023/05/16 10:08:52;;;;;;;;;;;;;;;;;;5001834;28;19930;-66
2023/05/16 10:11:19;;;;;;;;;;;;;;;;;;4999229;28;19934;-66
2023/05/16 10:13:49;;;;;;;;;;;;;;;;;;5001317;28;19933;-66
2023/05/16 10:16:16;;;;;;;;;;;;;;;;;;5007806;28;19943;-66
2023/05/16 10:18:43;;;;;;;;;;;;;;;;;;4999772;28;20384;-67
2023/05/16 10:21:10;;;;;;;;;;;;;;;;;;5002494;28;19933;-66
2023/05/16 10:23:38;;;;;;;;;;;;;;;;;;5000376;28;20025;-67
2023/05/16 10:26:05;;;;;;;;;;;;;;;;;;5009550;28;19925;-66
2023/05/16 10:28:32;;;;;;;;;;;;;;;;;;5011091;28;19925;-66
2023/05/16 10:30:59;;;;;;;;;;;;;;;;;;5006994;28;19933;-68
2023/05/16 10:33:26;;;;;;;;;;;;;;;;;;5009870;28;19929;-67
2023/05/16 10:35:53;;;;;;;;;;;;;;;;;;5008303;28;19969;-67
2023/05/16 10:38:20;;;;;;;;;;;;;;;;;;5003775;28;20413;-67
2023/05/16 10:40:47;;;;;;;;;;;;;;;;;;5004156;28;19929;-67
2023/05/16 10:43:14;;;;;;;;;;;;;;;;;;4999967;28;19976;-67
2023/05/16 10:45:41;;;;;;;;;;;;;;;;;;5008906;28;19984;-67
2023/05/16 10:48:08;;;;;;;;;;;;;;;;;;4999547;28;20004;-67
2023/05/16 10:50:35;;;;;;;;;;;;;;;;;;5009073;28;19929;-67
2023/05/16 10:53:02;;;;;;;;;;;;;;;;;;5007677;28;19965;-68
2023/05/16 10:55:29;;;;;;;;;;;;;;;;;;5000906;28;20581;-67
2023/05/16 10:57:56;;;;;;;;;;;;;;;;;;5000072;28;19968;-67
2023/05/16 11:00:23;;;;;;;;;;;;;;;;;;4996967;28;20503;-67
2023/05/16 11:02:50;;;;;;;;;;;;;;;;;;4993927;28;19968;-67
2023/05/16 11:05:17;;;;;;;;;;;;;;;;;;4999485;28;19973;-67
2023/05/16 11:07:45;;;;;;;;;;;;;;;;;;4997458;28;20436;-67
2023/05/16 11:10:12;;;;;;;;;;;;;;;;;;5009638;28;19980;-67
2023/05/16 11:12:39;;;;;;;;;;;;;;;;;;4994758;28;20013;-66
2023/05/16 11:15:06;;;;;;;;;;;;;;;;;;5004692;28;19929;-67
2023/05/16 11:17:33;;;;;;;;;;;;;;;;;;5003323;28;19929;-67
2023/05/16 11:20:00;;;;;;;;;;;;;;;;;;5010126;28;19964;-67
2023/05/16 11:22:27;;;;;;;;;;;;;;;;;;5011307;28;20003;-68
2023/05/16 11:24:54;;;;;;;;;;;;;;;;;;5013762;28;19972;-67
2023/05/16 11:27:21;;;;;;;;;;;;;;;;;;5009826;28;20508;-68
2023/05/16 11:29:48;;;;;;;;;;;;;;;;;;5011789;28;20028;-68
2023/05/16 11:32:15;;;;;;;;;;;;;;;;;;5007197;28;19936;-66
2023/05/16 11:34:42;;;;;;;;;;;;;;;;;;5010953;28;20343;-67
2023/05/16 11:37:09;;;;;;;;;;;;;;;;;;5012812;28;19979;-67
2023/05/16 11:39:36;;;;;;;;;;;;;;;;;;5007571;28;20017;-66
2023/05/16 11:42:03;;;;;;;;;;;;;;;;;;5013939;28;19925;-68
2023/05/16 11:44:30;;;;;;;;;;;;;;;;;;5011262;28;19926;-68
2023/05/16 11:46:57;;;;;;;;;;;;;;;;;;5007268;28;19929;-68
2023/05/16 11:49:26;;;;;;;;;;;;;;;;;;5004970;28;19979;-68
2023/05/16 11:51:53;;;;;;;;;;;;;;;;;;5013739;28;19933;-70
2023/05/16 11:54:21;;;;;;;;;;;;;;;;;;5012378;28;20308;-66
2023/05/16 11:56:48;;;;;;;;;;;;;;;;;;5000502;28;19942;-68
2023/05/16 11:59:15;;;;;;;;;;;;;;;;;;5008000;28;20013;-68
2023/05/16 12:01:42;;;;;;;;;;;;;;;;;;4996852;28;20064;-68
2023/05/16 12:04:11;;;;;;;;;;;;;;;;;;5011024;28;20004;-68
2023/05/16 12:06:38;;;;;;;;;;;;;;;;;;5011188;28;20405;-67
2023/05/16 12:09:09;;;;;;;;;;;;;;;;;;5011209;28;19926;-68
2023/05/16 12:11:36;;;;;;;;;;;;;;;;;;5013643;28;19934;-66
2023/05/16 12:14:03;;;;;;;;;;;;;;;;;;5012668;28;19968;-66
2023/05/16 12:16:30;;;;;;;;;;;;;;;;;;5009813;28;19977;-66
2023/05/16 12:18:57;;;;;;;;;;;;;;;;;;5011107;28;19931;-66
2023/05/16 12:21:25;;;;;;;;;;;;;;;;;;5008011;28;19926;-67
2023/05/16 12:23:52;;;;;;;;;;;;;;;;;;5011551;28;20008;-67
2023/05/16 12:26:19;;;;;;;;;;;;;;;;;;5011966;28;19937;-67
2023/05/16 12:28:46;;;;;;;;;;;;;;;;;;5009251;28;19926;-67
2023/05/16 12:31:13;;;;;;;;;;;;;;;;;;5006632;28;19930;-67
2023/05/16 12:33:40;;;;;;;;;;;;;;;;;;5011212;28;20435;-70
2023/05/16 12:36:07;;;;;;;;;;;;;;;;;;5011281;28;19969;-71
2023/05/16 12:38:34;;;;;;;;;;;;;;;;;;5012944;28;19972;-71
2023/05/16 12:41:01;;;;;;;;;;;;;;;;;;5010627;28;20462;-71
2023/05/16 12:43:28;;;;;;;;;;;;;;;;;;5012667;28;19960;-71
2023/05/16 12:45:55;;;;;;;;;;;;;;;;;;5011640;28;19926;-71
2023/05/16 12:48:22;;;;;;;;;;;;;;;;;;5008347;28;19949;-71
2023/05/16 12:50:49;;;;;;;;;;;;;;;;;;5011020;28;19987;-71
2023/05/16 12:53:17;;;;;;;;;;;;;;;;;;5012819;28;19932;-71
2023/05/16 12:55:44;;;;;;;;;;;;;;;;;;5011908;28;19926;-71
2023/05/16 12:58:11;;;;;;;;;;;;;;;;;;5011014;28;20419;-71
2023/05/16 13:00:38;;;;;;;;;;;;;;;;;;5011444;28;19979;-68
2023/05/16 13:03:06;;;;;;;;;;;;;;;;;;5010845;28;19925;-67
2023/05/16 13:05:34;;;;;;;;;;;;;;;;;;5009196;28;19932;-68
2023/05/16 13:08:01;;;;;;;;;;;;;;;;;;5010143;28;19926;-68
2023/05/16 13:10:28;;;;;;;;;;;;;;;;;;5006630;28;19948;-68
2023/05/16 13:12:57;;;;;;;;;;;;;;;;;;5002678;28;19933;-68
2023/05/16 13:15:24;;;;;;;;;;;;;;;;;;5000097;28;19972;-68
2023/05/16 13:17:51;;;;;;;;;;;;;;;;;;5006594;28;19974;-68
2023/05/16 13:20:20;;;;;;;;;;;;;;;;;;5011079;28;20385;-67
2023/05/16 13:22:47;;;;;;;;;;;;;;;;;;5004250;28;19925;-68
2023/05/16 13:25:14;;;;;;;;;;;;;;;;;;5009329;28;19926;-69
2023/05/16 13:27:41;;;;;;;;;;;;;;;;;;5009416;28;19925;-67
2023/05/16 13:30:08;;;;;;;;;;;;;;;;;;5010632;28;19933;-67
2023/05/16 13:32:35;;;;;;;;;;;;;;;;;;5008835;28;19929;-67
2023/05/16 13:35:02;;;;;;;;;;;;;;;;;;5011497;28;20218;-67
2023/05/16 13:37:30;;;;;;;;;;;;;;;;;;5008884;28;20015;-68
2023/05/16 13:39:57;;;;;;;;;;;;;;;;;;5008817;28;19925;-67
2023/05/16 13:42:24;;;;;;;;;;;;;;;;;;5005270;28;19926;-67
2023/05/16 13:44:51;;;;;;;;;;;;;;;;;;4999708;28;19925;-68
2023/05/16 13:47:18;;;;;;;;;;;;;;;;;;5008393;28;19925;-68
2023/05/16 13:49:46;;;;;;;;;;;;;;;;;;5010306;28;19960;-67
2023/05/16 13:52:13;;;;;;;;;;;;;;;;;;5011668;28;19926;-68
2023/05/16 13:54:40;;;;;;;;;;;;;;;;;;5011160;28;19933;-68
2023/05/16 13:57:07;;;;;;;;;;;;;;;;;;5009770;28;19988;-67
2023/05/16 13:59:34;;;;;;;;;;;;;;;;;;5008211;28;20024;-67
2023/05/16 14:02:01;;;;;;;;;;;;;;;;;;5011719;28;19925;-68
2023/05/16 14:04:28;;;;;;;;;;;;;;;;;;5003436;28;19925;-67
2023/05/16 14:06:56;;;;;;;;;;;;;;;;;;5007246;28;20332;-67
2023/05/16 14:09:23;;;;;;;;;;;;;;;;;;5007027;28;19925;-68
2023/05/16 14:11:50;;;;;;;;;;;;;;;;;;5003502;28;19980;-68
2023/05/16 14:14:20;;;;;;;;;;;;;;;;;;5003922;28;20393;-67
2023/05/16 14:16:47;;;;;;;;;;;;;;;;;;5009867;28;20035;-67
2023/05/16 14:19:14;;;;;;;;;;;;;;;;;;5005827;28;20458;-67
2023/05/16 14:21:41;;;;;;;;;;;;;;;;;;5008405;28;19925;-68
2023/05/16 14:24:08;;;;;;;;;;;;;;;;;;5010119;28;19925;-68
2023/05/16 14:26:35;;;;;;;;;;;;;;;;;;5002060;28;19963;-68
2023/05/16 14:29:02;;;;;;;;;;;;;;;;;;5002419;28;19949;-68
2023/05/16 14:31:29;;;;;;;;;;;;;;;;;;5007075;28;20028;-68
2023/05/16 14:33:56;;;;;;;;;;;;;;;;;;5007880;28;19999;-67
2023/05/16 14:36:23;;;;;;;;;;;;;;;;;;5007875;28;19983;-68
2023/05/16 14:38:50;;;;;;;;;;;;;;;;;;5009167;28;20038;-68
2023/05/16 14:41:17;;;;;;;;;;;;;;;;;;5010884;28;19933;-68
2023/05/16 14:43:44;;;;;;;;;;;;;;;;;;5003246;28;19929;-69
2023/05/16 14:46:11;;;;;;;;;;;;;;;;;;5006165;28;19925;-67
2023/05/16 14:48:38;;;;;;;;;;;;;;;;;;5000638;28;19960;-67
2023/05/16 14:51:05;;;;;;;;;;;;;;;;;;5009026;28;20003;-68
2023/05/16 14:53:32;;;;;;;;;;;;;;;;;;5009505;28;20322;-67
2023/05/16 14:56:01;;;;;;;;;;;;;;;;;;5003460;28;19930;-68
2023/05/16 14:58:28;;;;;;;;;;;;;;;;;;5010678;28;20407;-67
2023/05/16 15:00:55;;;;;;;;;;;;;;;;;;5007043;28;19932;-67
2023/05/16 15:03:22;;;;;;;;;;;;;;;;;;5009898;28;19996;-67
2023/05/16 15:05:49;;;;;;;;;;;;;;;;;;5013831;28;20385;-67
2023/05/16 15:08:16;;;;;;;;;;;;;;;;;;5013554;28;19925;-67
2023/05/16 15:10:43;;;;;;;;;;;;;;;;;;5008632;28;21381;-67
2023/05/16 15:13:10;;;;;;;;;;;;;;;;;;5013453;28;20324;-67
2023/05/16 15:15:38;;;;;;;;;;;;;;;;;;5012936;28;19930;-68
2023/05/16 15:18:05;;;;;;;;;;;;;;;;;;5013653;28;19929;-67
2023/05/16 15:20:32;;;;;;;;;;;;;;;;;;5013647;28;19929;-67
2023/05/16 15:22:59;;;;;;;;;;;;;;;;;;5009717;28;20409;-66
2023/05/16 15:25:26;;;;;;;;;;;;;;;;;;5007698;28;19957;-68
2023/05/16 15:27:53;;;;;;;;;;;;;;;;;;5013779;28;20351;-68
2023/05/16 15:30:20;;;;;;;;;;;;;;;;;;5014756;28;20023;-68
2023/05/16 15:32:47;;;;;;;;;;;;;;;;;;5013830;28;19926;-68
2023/05/16 15:35:14;;;;;;;;;;;;;;;;;;5014505;28;19926;-68
2023/05/16 15:37:42;;;;;;;;;;;;;;;;;;5011071;28;20292;-68
2023/05/16 15:40:09;;;;;;;;;;;;;;;;;;5011803;28;20444;-68
2023/05/16 15:42:36;;;;;;;;;;;;;;;;;;5006881;28;20315;-68
2023/05/16 15:45:04;;;;;;;;;;;;;;;;;;5005015;28;19991;-69
2023/05/16 15:47:31;;;;;;;;;;;;;;;;;;5010690;28;19929;-68
2023/05/16 15:49:58;;;;;;;;;;;;;;;;;;5010063;28;20012;-68
2023/05/16 15:52:25;;;;;;;;;;;;;;;;;;5007696;28;19926;-68
2023/05/16 15:54:52;;;;;;;;;;;;;;;;;;5008754;28;20365;-67
2023/05/16 15:57:19;;;;;;;;;;;;;;;;;;5011560;28;19925;-67
2023/05/16 15:59:46;;;;;;;;;;;;;;;;;;5011067;28;19925;-67
2023/05/16 16:02:14;;;;;;;;;;;;;;;;;;5011998;28;19961;-67
2023/05/16 16:04:41;;;;;;;;;;;;;;;;;;5014176;28;19932;-67
2023/05/16 16:07:08;;;;;;;;;;;;;;;;;;5014193;28;19940;-67
2023/05/16 16:09:35;;;;;;;;;;;;;;;;;;5010250;28;19933;-67
2023/05/16 16:12:02;;;;;;;;;;;;;;;;;;5014705;28;19933;-66
2023/05/16 16:14:29;;;;;;;;;;;;;;;;;;5012776;28;19979;-67
2023/05/16 16:16:56;;;;;;;;;;;;;;;;;;5003503;28;19949;-66
2023/05/16 16:19:23;;;;;;;;;;;;;;;;;;5012061;28;19925;-66
2023/05/16 16:21:50;;;;;;;;;;;;;;;;;;5008399;28;19926;-66
2023/05/16 16:24:18;;;;;;;;;;;;;;;;;;5012436;28;19925;-65
2023/05/16 16:26:46;;;;;;;;;;;;;;;;;;5011295;28;19925;-66
2023/05/16 16:29:13;;;;;;;;;;;;;;;;;;5012787;28;19925;-67
2023/05/16 16:31:40;;;;;;;;;;;;;;;;;;5011304;28;19940;-67
2023/05/16 16:34:07;;;;;;;;;;;;;;;;;;5011388;28;19926;-67
2023/05/16 16:36:34;;;;;;;;;;;;;;;;;;5010939;28;20355;-66
2023/05/16 16:39:01;;;;;;;;;;;;;;;;;;5009349;28;19972;-68
2023/05/16 16:41:28;;;;;;;;;;;;;;;;;;5010950;28;20022;-68
2023/05/16 16:43:55;;;;;;;;;;;;;;;;;;5006988;28;19984;-68